createdAt,value
2022-12-11T00:00:15.855Z,50.28
2022-12-11T00:02:45.237Z,50.13
2022-12-11T00:05:12.415Z,49.55
2022-12-11T00:07:39.504Z,50.13
2022-12-11T00:10:08.060Z,50.30
2022-12-11T00:12:35.054Z,50.71
2022-12-11T00:15:02.054Z,49.39
2022-12-11T00:17:29.255Z,49.52
2022-12-11T00:19:57.483Z,50.37
2022-12-11T00:22:24.461Z,50.04
2022-12-11T00:24:52.057Z,49.35
2022-12-11T00:27:19.157Z,49.60
2022-12-11T00:29:46.147Z,50.79
2022-12-11T00:32:13.138Z,50.87
2022-12-11T00:34:40.278Z,49.71
2022-12-11T00:37:08.858Z,49.94
2022-12-11T00:39:37.169Z,50.28
2022-12-11T00:42:04.525Z,50.88
2022-12-11T00:44:31.531Z,50.84
2022-12-11T00:46:58.523Z,51.03
2022-12-11T00:49:25.470Z,50.56
2022-12-11T00:51:52.519Z,50.75
2022-12-11T00:54:20.836Z,50.05
2022-12-11T00:56:47.767Z,49.93
2022-12-11T00:59:16.100Z,50.40
2022-12-11T01:01:43.106Z,49.55
2022-12-11T01:04:10.031Z,50.41
2022-12-11T01:06:37.043Z,49.78
2022-12-11T01:09:23.026Z,50.06
2022-12-11T01:11:52.091Z,50.51
2022-12-11T01:14:19.325Z,50.20
2022-12-11T01:16:46.524Z,49.90
2022-12-11T01:19:13.535Z,50.89
2022-12-11T01:21:41.097Z,50.65
2022-12-11T01:24:08.177Z,51.25
2022-12-11T01:26:36.705Z,50.08
2022-12-11T01:29:05.059Z,50.30
2022-12-11T01:31:33.075Z,49.57
2022-12-11T01:34:00.122Z,49.25
2022-12-11T01:36:27.122Z,50.27
2022-12-11T01:38:54.409Z,50.25
2022-12-11T01:41:22.812Z,49.99
2022-12-11T01:44:03.170Z,50.17
2022-12-11T01:46:34.729Z,49.97
2022-12-11T01:49:06.239Z,50.18
2022-12-11T01:51:41.321Z,50.58
2022-12-11T01:54:13.418Z,50.59
2022-12-11T01:56:43.608Z,50.01
2022-12-11T01:59:14.252Z,50.04
2022-12-11T02:01:50.943Z,50.20
2022-12-11T02:04:20.043Z,49.72
2022-12-11T02:06:50.796Z,49.68
2022-12-11T02:09:22.137Z,49.94
2022-12-11T02:12:03.397Z,50.34
2022-12-11T02:14:39.579Z,51.37
2022-12-11T02:17:17.039Z,50.42
2022-12-11T02:20:01.503Z,50.75
2022-12-11T02:23:06.421Z,51.69
2022-12-11T02:25:46.798Z,51.64
2022-12-11T02:28:22.172Z,51.71
2022-12-11T02:30:55.189Z,52.26
2022-12-11T02:33:32.206Z,52.38
2022-12-11T02:36:02.453Z,52.32
2022-12-11T02:38:35.687Z,52.09
2022-12-11T02:41:05.459Z,51.74
2022-12-11T02:43:36.715Z,51.04
2022-12-11T02:46:07.667Z,50.90
2022-12-11T02:48:37.098Z,52.05
2022-12-11T02:51:07.615Z,51.75
2022-12-11T02:53:40.806Z,51.19
2022-12-11T02:56:12.916Z,51.43
2022-12-11T02:58:52.631Z,50.44
2022-12-11T03:01:22.530Z,50.91
2022-12-11T03:03:49.655Z,50.01
2022-12-11T03:06:21.878Z,51.26
2022-12-11T03:08:51.758Z,50.85
2022-12-11T03:11:18.703Z,51.19
2022-12-11T03:13:47.050Z,50.58
2022-12-11T03:16:24.150Z,51.50
2022-12-11T03:19:06.467Z,51.81
2022-12-11T03:21:43.877Z,51.29
2022-12-11T03:24:19.166Z,51.14
2022-12-11T03:26:56.685Z,50.19
2022-12-11T03:29:32.773Z,50.10
2022-12-11T03:32:08.739Z,50.44
2022-12-11T03:34:44.991Z,50.20
2022-12-11T03:37:14.805Z,51.45
2022-12-11T03:39:48.719Z,50.42
2022-12-11T03:42:18.849Z,50.15
2022-12-11T03:44:51.148Z,50.77
2022-12-11T03:47:23.902Z,50.54
2022-12-11T03:49:54.418Z,51.91
2022-12-11T03:52:22.851Z,50.97
2022-12-11T03:54:51.218Z,50.58
2022-12-11T03:57:24.880Z,50.92
2022-12-11T03:59:53.328Z,50.77
2022-12-11T04:02:20.631Z,50.70
2022-12-11T04:04:47.603Z,51.87
2022-12-11T04:07:15.633Z,51.71
2022-12-11T04:09:42.619Z,50.86
2022-12-11T04:12:09.600Z,50.84
2022-12-11T04:14:55.292Z,51.25
2022-12-11T04:17:42.054Z,50.75
2022-12-11T04:20:29.850Z,51.22
2022-12-11T04:23:15.372Z,51.00
2022-12-11T04:25:42.545Z,51.03
2022-12-11T04:28:09.643Z,50.25
2022-12-11T04:30:36.642Z,50.18
2022-12-11T04:33:05.020Z,50.56
2022-12-11T04:35:32.580Z,49.93
2022-12-11T04:37:59.643Z,50.20
2022-12-11T04:40:26.851Z,50.40
2022-12-11T04:42:53.886Z,51.05
2022-12-11T04:45:20.965Z,50.36
2022-12-11T04:47:49.673Z,50.30
2022-12-11T04:50:18.181Z,50.67
2022-12-11T04:52:45.350Z,50.90
2022-12-11T04:55:13.525Z,51.34
2022-12-11T04:57:41.122Z,50.43
2022-12-11T05:00:13.085Z,50.96
2022-12-11T05:02:42.091Z,50.75
2022-12-11T05:05:11.537Z,50.90
2022-12-11T05:07:41.902Z,50.92
2022-12-11T05:10:10.134Z,49.77
2022-12-11T05:12:37.290Z,50.19
2022-12-11T05:15:04.944Z,50.13
2022-12-11T05:17:31.891Z,49.60
2022-12-11T05:19:58.867Z,50.79
2022-12-11T05:22:25.821Z,50.50
2022-12-11T05:24:54.171Z,50.66
2022-12-11T05:27:21.128Z,50.33
2022-12-11T05:29:48.084Z,50.11
2022-12-11T05:32:15.063Z,50.22
2022-12-11T05:34:41.989Z,50.30
2022-12-11T05:37:08.995Z,51.07
2022-12-11T05:39:36.030Z,51.18
2022-12-11T05:42:04.867Z,50.25
2022-12-11T05:44:31.969Z,51.33
2022-12-11T05:46:59.246Z,50.22
2022-12-11T05:49:30.844Z,51.18
2022-12-11T05:51:58.194Z,50.58
2022-12-11T05:54:25.443Z,51.29
2022-12-11T05:56:52.356Z,50.40
2022-12-11T05:59:20.781Z,50.42
2022-12-11T06:01:48.049Z,50.65
2022-12-11T06:04:15.234Z,49.98
2022-12-11T06:06:43.649Z,50.10
2022-12-11T06:09:14.765Z,50.94
2022-12-11T06:11:42.574Z,50.62
2022-12-11T06:14:11.723Z,50.43
2022-12-11T06:16:40.097Z,51.43
2022-12-11T06:19:07.295Z,51.46
2022-12-11T06:21:34.395Z,50.25
2022-12-11T06:24:04.022Z,50.79
2022-12-11T06:26:31.992Z,50.92
2022-12-11T06:28:59.037Z,50.95
2022-12-11T06:31:26.104Z,50.89
2022-12-11T06:33:54.485Z,50.54
2022-12-11T06:36:24.324Z,50.61
2022-12-11T06:38:52.654Z,50.84
2022-12-11T06:41:19.746Z,51.27
2022-12-11T06:43:46.846Z,52.68
2022-12-11T06:46:17.220Z,52.61
2022-12-11T06:48:44.937Z,52.34
2022-12-11T06:51:16.954Z,52.57
2022-12-11T06:53:44.410Z,52.42
2022-12-11T06:56:15.050Z,52.32
2022-12-11T06:58:43.939Z,52.39
2022-12-11T07:01:20.301Z,52.07
2022-12-11T07:03:47.456Z,52.76
2022-12-11T07:06:16.547Z,52.58
2022-12-11T07:08:43.650Z,52.46
2022-12-11T07:11:13.451Z,51.87
2022-12-11T07:13:42.037Z,52.32
2022-12-11T07:16:11.881Z,51.83
2022-12-11T07:18:40.302Z,51.31
2022-12-11T07:21:09.363Z,50.85
2022-12-11T07:23:38.200Z,51.33
2022-12-11T07:26:06.500Z,50.95
2022-12-11T07:28:34.376Z,51.68
2022-12-11T07:31:06.082Z,51.67
2022-12-11T07:33:33.350Z,51.71
2022-12-11T07:36:02.751Z,52.12
2022-12-11T07:38:29.836Z,50.95
2022-12-11T07:41:01.558Z,51.39
2022-12-11T07:43:28.508Z,50.87
2022-12-11T07:45:55.554Z,50.64
2022-12-11T07:48:22.543Z,51.48
2022-12-11T07:50:49.511Z,50.79
2022-12-11T07:53:16.447Z,51.28
2022-12-11T07:55:43.371Z,51.60
2022-12-11T07:58:11.687Z,51.52
2022-12-11T08:00:38.699Z,52.19
2022-12-11T08:03:05.634Z,51.34
2022-12-11T08:05:32.594Z,51.81
2022-12-11T08:07:59.561Z,51.05
2022-12-11T08:10:26.527Z,50.95
2022-12-11T08:12:53.549Z,52.07
2022-12-11T08:15:21.793Z,52.64
2022-12-11T08:17:48.738Z,52.59
2022-12-11T08:20:15.761Z,51.41
2022-12-11T08:22:42.704Z,51.67
2022-12-11T08:25:10.206Z,51.87
2022-12-11T08:27:37.299Z,51.93
2022-12-11T08:30:05.869Z,51.21
2022-12-11T08:32:34.460Z,50.97
2022-12-11T08:35:01.955Z,51.19
2022-12-11T08:37:29.537Z,52.13
2022-12-11T08:39:56.491Z,51.60
2022-12-11T08:42:23.592Z,51.17
2022-12-11T08:44:51.654Z,50.51
2022-12-11T08:47:18.710Z,51.00
2022-12-11T08:49:46.998Z,51.39
2022-12-11T08:52:13.962Z,51.59
2022-12-11T08:54:41.074Z,51.43
2022-12-11T08:57:08.067Z,51.30
2022-12-11T08:59:35.231Z,51.43
2022-12-11T09:02:02.195Z,50.86
2022-12-11T09:04:29.168Z,51.78
2022-12-11T09:06:57.475Z,50.77
2022-12-11T09:09:24.444Z,50.95
2022-12-11T09:11:51.460Z,50.65
2022-12-11T09:14:18.752Z,50.76
2022-12-11T09:16:45.863Z,51.21
2022-12-11T09:19:14.843Z,50.69
2022-12-11T09:21:43.588Z,50.89
2022-12-11T09:24:13.533Z,51.10
2022-12-11T09:26:40.848Z,51.59
2022-12-11T09:29:08.430Z,50.94
2022-12-11T09:31:37.414Z,51.00
2022-12-11T09:34:08.680Z,51.06
2022-12-11T09:36:38.399Z,51.28
2022-12-11T09:39:08.258Z,51.61
2022-12-11T09:41:49.192Z,51.58
2022-12-11T09:44:24.448Z,52.04
2022-12-11T09:46:53.980Z,51.57
2022-12-11T09:49:32.119Z,52.43
2022-12-11T09:52:10.314Z,51.53
2022-12-11T09:54:44.105Z,51.62
2022-12-11T09:57:25.407Z,51.65
2022-12-11T10:00:09.484Z,51.85
2022-12-11T10:02:55.430Z,50.71
2022-12-11T10:05:36.976Z,51.39
2022-12-11T10:08:18.591Z,50.26
2022-12-11T10:10:57.820Z,50.22
2022-12-11T10:13:40.447Z,51.34
2022-12-11T10:16:20.473Z,50.73
2022-12-11T10:18:48.866Z,51.29
2022-12-11T10:21:18.225Z,50.50
2022-12-11T10:23:54.803Z,51.56
2022-12-11T10:26:23.161Z,51.46
2022-12-11T10:28:51.935Z,50.95
2022-12-11T10:31:26.293Z,50.72
2022-12-11T10:34:00.429Z,51.27
2022-12-11T10:36:31.569Z,51.55
2022-12-11T10:38:59.208Z,50.85
2022-12-11T10:41:39.062Z,51.33
2022-12-11T10:44:19.263Z,50.86
2022-12-11T10:46:47.387Z,50.48
2022-12-11T10:49:28.024Z,51.07
2022-12-11T10:51:55.838Z,50.72
2022-12-11T10:54:38.097Z,49.91
2022-12-11T10:57:10.051Z,50.78
2022-12-11T10:59:45.397Z,50.78
2022-12-11T11:02:24.596Z,51.35
2022-12-11T11:04:53.376Z,51.31
2022-12-11T11:07:24.002Z,51.58
2022-12-11T11:10:02.709Z,50.86
2022-12-11T11:12:29.647Z,50.43
2022-12-11T11:15:04.444Z,50.98
2022-12-11T11:17:35.759Z,51.02
2022-12-11T11:20:14.535Z,51.38
2022-12-11T11:22:46.471Z,51.32
2022-12-11T11:25:21.393Z,50.15
2022-12-11T11:27:57.989Z,50.78
2022-12-11T11:30:30.168Z,50.58
2022-12-11T11:33:02.303Z,50.71
2022-12-11T11:35:31.684Z,51.10
2022-12-11T11:38:05.685Z,50.41
2022-12-11T11:40:42.188Z,49.97
2022-12-11T11:43:23.938Z,50.57
2022-12-11T11:46:01.978Z,49.99
2022-12-11T11:48:40.175Z,49.86
2022-12-11T11:51:15.957Z,50.35
2022-12-11T11:53:49.425Z,50.38
2022-12-11T11:56:23.607Z,50.30
2022-12-11T11:59:02.975Z,50.17
2022-12-11T12:01:34.735Z,50.29
2022-12-11T12:04:04.755Z,50.06
2022-12-11T12:06:51.102Z,50.81
2022-12-11T12:09:35.591Z,50.59
2022-12-11T12:12:20.953Z,50.23
2022-12-11T12:15:13.964Z,50.44
2022-12-11T12:17:55.728Z,50.02
2022-12-11T12:20:46.050Z,50.20
2022-12-11T12:23:52.498Z,50.16
2022-12-11T12:26:29.058Z,50.22
2022-12-11T12:29:17.593Z,50.12
2022-12-11T12:32:02.503Z,50.27
2022-12-11T12:34:53.996Z,50.60
2022-12-11T12:37:45.771Z,50.34
2022-12-11T12:40:23.168Z,51.09
2022-12-11T12:43:04.376Z,50.72
2022-12-11T12:45:46.519Z,50.11
2022-12-11T12:48:13.969Z,50.09
2022-12-11T12:50:48.122Z,50.87
2022-12-11T12:53:20.347Z,50.27
2022-12-11T12:55:49.669Z,50.93
2022-12-11T12:58:41.233Z,50.72
2022-12-11T13:01:14.923Z,50.81
2022-12-11T13:03:55.608Z,50.02
2022-12-11T13:06:35.596Z,50.14
2022-12-11T13:09:21.202Z,50.06
2022-12-11T13:11:54.920Z,49.97
2022-12-11T13:14:31.550Z,50.31
2022-12-11T13:17:24.267Z,50.20
2022-12-11T13:20:10.764Z,50.08
2022-12-11T13:22:50.805Z,49.90
2022-12-11T13:25:24.439Z,49.92
2022-12-11T13:27:51.885Z,49.67
2022-12-11T13:30:26.488Z,49.47
2022-12-11T13:33:04.106Z,50.67
2022-12-11T13:35:34.463Z,50.29
2022-12-11T13:38:16.720Z,50.17
2022-12-11T13:40:49.669Z,50.16
2022-12-11T13:43:21.561Z,50.27
2022-12-11T13:45:52.077Z,50.62
2022-12-11T13:48:26.834Z,50.36
2022-12-11T13:50:57.564Z,50.52
2022-12-11T13:53:26.257Z,51.56
2022-12-11T13:55:59.679Z,50.92
2022-12-11T13:58:28.504Z,51.21
2022-12-11T14:01:06.390Z,50.66
2022-12-11T14:03:35.012Z,51.74
2022-12-11T14:06:03.627Z,51.17
2022-12-11T14:08:37.250Z,51.31
2022-12-11T14:11:05.891Z,51.27
2022-12-11T14:13:37.582Z,51.40
2022-12-11T14:16:07.634Z,51.59
2022-12-11T14:18:36.791Z,51.47
2022-12-11T14:21:06.359Z,50.82
2022-12-11T14:23:37.380Z,50.75
2022-12-11T14:26:21.055Z,50.47
2022-12-11T14:28:48.335Z,50.62
2022-12-11T14:31:25.193Z,50.38
2022-12-11T14:34:03.436Z,50.23
2022-12-11T14:36:33.070Z,50.73
2022-12-11T14:39:06.904Z,50.63
2022-12-11T14:41:45.734Z,50.07
2022-12-11T14:44:16.796Z,50.86
2022-12-11T14:46:49.076Z,50.39
2022-12-11T14:49:24.831Z,51.12
2022-12-11T14:51:56.251Z,50.09
2022-12-11T14:54:32.238Z,50.69
2022-12-11T14:57:06.115Z,50.88
2022-12-11T14:59:44.467Z,50.42
2022-12-11T15:02:26.071Z,50.40
2022-12-11T15:05:12.286Z,50.61
2022-12-11T15:07:41.441Z,51.09
2022-12-11T15:10:31.358Z,50.82
2022-12-11T15:12:59.423Z,50.83
2022-12-11T15:15:28.491Z,50.78
2022-12-11T15:17:56.010Z,50.78
2022-12-11T15:20:28.431Z,50.38
2022-12-11T15:23:01.807Z,50.01
2022-12-11T15:25:30.849Z,50.58
2022-12-11T15:28:00.520Z,50.49
2022-12-11T15:30:36.383Z,49.73
2022-12-11T15:33:21.952Z,49.11
2022-12-11T15:36:02.937Z,49.13
2022-12-11T15:38:37.310Z,49.24
2022-12-11T15:41:12.931Z,49.30
2022-12-11T15:43:40.386Z,49.42
2022-12-11T15:46:07.579Z,49.81
2022-12-11T15:48:34.578Z,49.71
2022-12-11T15:51:01.600Z,49.48
2022-12-11T15:53:30.073Z,49.66
2022-12-11T15:56:16.565Z,49.50
2022-12-11T15:58:54.552Z,49.61
2022-12-11T16:01:21.650Z,50.11
2022-12-11T16:03:50.314Z,50.19
2022-12-11T16:06:23.789Z,50.71
2022-12-11T16:08:50.982Z,50.68
2022-12-11T16:11:19.296Z,51.02
2022-12-11T16:13:46.255Z,50.88
2022-12-11T16:16:13.267Z,50.45
2022-12-11T16:18:40.334Z,50.69
2022-12-11T16:21:07.581Z,51.56
2022-12-11T16:23:36.098Z,51.83
2022-12-11T16:26:07.545Z,51.18
2022-12-11T16:28:35.923Z,51.21
2022-12-11T16:31:03.542Z,51.50
2022-12-11T16:33:30.556Z,50.56
2022-12-11T16:35:59.104Z,51.42
2022-12-11T16:38:26.152Z,51.31
2022-12-11T16:41:00.652Z,51.48
2022-12-11T16:43:27.665Z,51.54
2022-12-11T16:45:56.233Z,51.34
2022-12-11T16:48:23.330Z,52.13
2022-12-11T16:50:53.608Z,52.45
2022-12-11T16:53:20.826Z,52.94
2022-12-11T16:55:47.859Z,52.56
2022-12-11T16:58:19.783Z,53.16
2022-12-11T17:00:47.907Z,52.79
2022-12-11T17:03:16.844Z,52.41
2022-12-11T17:05:48.046Z,52.82
2022-12-11T17:08:15.785Z,52.22
2022-12-11T17:10:43.006Z,51.93
2022-12-11T17:13:09.999Z,52.10
2022-12-11T17:15:41.035Z,52.48
2022-12-11T17:18:08.670Z,52.75
2022-12-11T17:20:40.534Z,51.82
2022-12-11T17:23:09.908Z,52.31
2022-12-11T17:25:41.053Z,51.80
2022-12-11T17:28:08.348Z,51.10
2022-12-11T17:30:44.165Z,51.12
2022-12-11T17:33:26.640Z,51.26
2022-12-11T17:36:07.292Z,52.13
2022-12-11T17:38:34.969Z,51.65
2022-12-11T17:41:06.412Z,52.35
2022-12-11T17:43:34.434Z,51.83
2022-12-11T17:46:01.680Z,52.52
2022-12-11T17:48:30.900Z,52.28
2022-12-11T17:51:04.534Z,51.84
2022-12-11T17:53:35.209Z,51.22
2022-12-11T17:56:08.081Z,51.68
2022-12-11T17:58:36.283Z,51.97
2022-12-11T18:01:13.160Z,52.67
2022-12-11T18:03:41.308Z,52.03
2022-12-11T18:06:23.351Z,52.63
2022-12-11T18:09:28.289Z,52.97
2022-12-11T18:12:06.247Z,52.99
2022-12-11T18:14:33.992Z,53.45
2022-12-11T18:17:20.679Z,54.40
2022-12-11T18:19:47.741Z,55.08
2022-12-11T18:22:25.502Z,55.38
2022-12-11T18:24:58.284Z,55.03
2022-12-11T18:27:25.450Z,54.39
2022-12-11T18:30:01.976Z,54.38
2022-12-11T18:32:28.905Z,55.02
2022-12-11T18:35:17.389Z,54.45
2022-12-11T18:37:46.152Z,55.28
2022-12-11T18:40:28.054Z,55.25
2022-12-11T18:42:56.221Z,54.39
2022-12-11T18:45:31.149Z,54.36
2022-12-11T18:48:08.130Z,54.88
2022-12-11T18:50:38.357Z,54.14
2022-12-11T18:53:06.631Z,54.30
2022-12-11T18:55:38.707Z,54.47
2022-12-11T18:58:05.719Z,55.24
2022-12-11T19:00:32.707Z,54.77
2022-12-11T19:02:59.676Z,54.96
2022-12-11T19:05:26.678Z,54.22
2022-12-11T19:07:53.696Z,54.93
2022-12-11T19:10:22.074Z,54.88
2022-12-11T19:12:49.299Z,54.87
2022-12-11T19:15:22.146Z,55.14
2022-12-11T19:17:50.629Z,53.83
2022-12-11T19:20:48.697Z,53.83
2022-12-11T19:23:05.907Z,54.03
2022-12-11T19:25:34.558Z,54.83
2022-12-11T19:28:01.750Z,54.24
2022-12-11T19:30:28.907Z,54.64
2022-12-11T19:32:57.442Z,54.03
2022-12-11T19:35:24.462Z,54.39
2022-12-11T19:37:51.430Z,53.59
2022-12-11T19:40:19.338Z,53.13
2022-12-11T19:42:47.625Z,53.88
2022-12-11T19:45:14.761Z,53.56
2022-12-11T19:47:41.992Z,53.49
2022-12-11T19:50:09.787Z,53.95
2022-12-11T19:52:39.223Z,53.19
2022-12-11T19:55:13.374Z,53.42
2022-12-11T19:57:40.857Z,52.39
2022-12-11T20:00:10.880Z,53.52
2022-12-11T20:02:37.993Z,53.82
2022-12-11T20:05:05.981Z,52.62
2022-12-11T20:07:32.923Z,53.17
2022-12-11T20:10:00.342Z,53.00
2022-12-11T20:12:28.417Z,52.65
2022-12-11T20:14:55.375Z,52.19
2022-12-11T20:17:24.074Z,53.34
2022-12-11T20:19:51.341Z,53.19
2022-12-11T20:22:18.324Z,53.34
2022-12-11T20:24:45.600Z,52.17
2022-12-11T20:27:12.620Z,52.51
2022-12-11T20:29:39.884Z,52.32
2022-12-11T20:32:07.342Z,52.93
2022-12-11T20:34:35.758Z,52.46
2022-12-11T20:37:02.854Z,53.85
2022-12-11T20:39:32.852Z,53.38
2022-12-11T20:42:01.043Z,52.42
2022-12-11T20:44:27.969Z,53.34
2022-12-11T20:46:55.038Z,53.05
2022-12-11T20:49:22.066Z,52.86
2022-12-11T20:51:50.425Z,53.46
2022-12-11T20:54:17.414Z,52.93
2022-12-11T20:56:44.494Z,53.50
2022-12-11T20:59:11.707Z,53.30
2022-12-11T21:01:40.111Z,52.56
2022-12-11T21:04:07.052Z,52.65
2022-12-11T21:06:36.630Z,53.16
2022-12-11T21:09:08.422Z,53.53
2022-12-11T21:11:35.650Z,52.87
2022-12-11T21:14:02.631Z,53.28
2022-12-11T21:16:29.848Z,52.91
2022-12-11T21:18:58.690Z,53.41
2022-12-11T21:21:25.842Z,53.73
2022-12-11T21:23:52.856Z,54.06
2022-12-11T21:26:21.442Z,53.09
2022-12-11T21:28:48.471Z,53.51
2022-12-11T21:31:18.455Z,53.19
2022-12-11T21:33:46.682Z,53.44
2022-12-11T21:36:15.145Z,54.08
2022-12-11T21:38:44.041Z,53.74
2022-12-11T21:41:14.258Z,53.84
2022-12-11T21:44:14.613Z,53.70
2022-12-11T21:46:31.269Z,54.09
2022-12-11T21:48:58.611Z,54.07
2022-12-11T21:51:35.676Z,54.32
2022-12-11T21:54:06.445Z,53.86
2022-12-11T21:56:33.586Z,53.92
2022-12-11T21:59:02.090Z,53.10
2022-12-11T22:01:35.214Z,53.93
2022-12-11T22:04:04.859Z,53.98
2022-12-11T22:06:32.303Z,53.59
2022-12-11T22:08:59.338Z,54.48
2022-12-11T22:11:30.962Z,54.23
2022-12-11T22:13:58.262Z,53.74
2022-12-11T22:16:26.751Z,53.57
2022-12-11T22:18:53.944Z,53.18
2022-12-11T22:21:20.921Z,53.13
2022-12-11T22:23:48.145Z,53.07
2022-12-11T22:26:18.613Z,53.09
2022-12-11T22:28:45.604Z,53.29
2022-12-11T22:31:15.001Z,52.96
2022-12-11T22:33:43.493Z,53.22
2022-12-11T22:36:11.519Z,53.56
2022-12-11T22:38:39.370Z,53.83
2022-12-11T22:41:11.134Z,53.32
2022-12-11T22:43:38.132Z,53.80
2022-12-11T22:46:05.204Z,53.75
2022-12-11T22:48:32.290Z,54.25
2022-12-11T22:51:05.464Z,53.41
2022-12-11T22:53:32.373Z,53.63
2022-12-11T22:55:59.343Z,54.52
2022-12-11T22:58:26.289Z,53.49
2022-12-11T23:00:53.287Z,53.82
2022-12-11T23:03:20.247Z,52.88
2022-12-11T23:05:47.190Z,52.95
2022-12-11T23:08:15.642Z,52.89
2022-12-11T23:10:42.714Z,53.00
2022-12-11T23:13:09.662Z,54.22
2022-12-11T23:15:36.906Z,54.77
2022-12-11T23:18:04.325Z,54.24
2022-12-11T23:20:31.312Z,54.81
2022-12-11T23:22:58.333Z,55.06
2022-12-11T23:25:27.898Z,55.20
2022-12-11T23:27:55.171Z,55.40
2022-12-11T23:30:22.278Z,54.62
2022-12-11T23:32:49.269Z,54.83
2022-12-11T23:35:16.445Z,54.99
2022-12-11T23:37:43.393Z,55.35
2022-12-11T23:40:13.819Z,55.84
2022-12-11T23:42:42.058Z,56.12
2022-12-11T23:45:09.927Z,56.17
2022-12-11T23:47:37.046Z,55.50
2022-12-11T23:50:05.144Z,55.06
2022-12-11T23:52:32.084Z,55.05
2022-12-11T23:54:59.055Z,55.80
2022-12-11T23:57:25.984Z,54.15
2022-12-11T23:59:54.256Z,54.21
